Time;durP1;ratioP1;P1;durP2;ratioP2;P2;SDS_P1;SDS_P2;PMS_P1;PMS_P2;Temp;Humidity;BMP_temperature;BMP_pressure;BME280_temperature;BME280_humidity;BME280_pressure;Samples;Min_cycle;Max_cycle;Signal;HPM_P1;HPM_P2
2022/11/20 00:02:14;;;;;;;8.03;6.57;;;;;;;2.29;94.71;101289.53;4989226;28;20215;-70
2022/11/20 00:04:39;;;;;;;11.60;6.77;;;;;;;2.28;93.85;101293.69;4985784;28;20879;-70
2022/11/20 00:07:05;;;;;;;8.43;6.30;;;;;;;2.26;94.25;101291.88;4989630;28;20191;-72
2022/11/20 00:09:30;;;;;;;10.20;7.00;;;;;;;2.23;94.37;101291.66;4988412;28;20216;-72
2022/11/20 00:11:56;;;;;;;10.37;6.20;;;;;;;2.23;94.73;101289.13;4989188;28;20619;-72
2022/11/20 00:14:21;;;;;;;11.03;6.30;;;;;;;2.19;94.64;101290.63;4988785;28;20609;-72
2022/11/20 00:16:47;;;;;;;9.10;6.13;;;;;;;2.16;94.10;101290.44;4991747;28;20278;-71
2022/11/20 00:19:12;;;;;;;10.53;6.87;;;;;;;2.16;94.81;101292.97;4992202;28;20198;-71
2022/11/20 00:21:37;;;;;;;9.90;6.40;;;;;;;2.14;93.77;101288.59;4992295;28;20200;-71
2022/11/20 00:24:03;;;;;;;7.83;5.93;;;;;;;2.13;93.58;101289.38;4990131;28;20633;-72
2022/11/20 00:26:29;;;;;;;10.73;7.03;;;;;;;2.14;93.68;101289.47;4991499;28;20199;-71
2022/11/20 00:29:00;;;;;;;10.63;6.47;;;;;;;2.13;93.66;101291.91;4993370;28;20927;-71
2022/11/20 00:31:26;;;;;;;9.77;6.87;;;;;;;2.10;94.40;101289.19;4990303;28;20226;-72
2022/11/20 00:33:52;;;;;;;10.63;6.27;;;;;;;2.10;93.60;101291.72;4993062;28;20195;-71
2022/11/20 00:36:23;;;;;;;9.17;6.90;;;;;;;2.10;93.64;101299.28;5005190;28;20270;-71
2022/11/20 00:38:53;;;;;;;9.47;5.80;;;;;;;2.11;93.84;101293.50;4991453;28;20227;-71
2022/11/20 00:41:19;;;;;;;9.50;6.13;;;;;;;2.09;94.51;101293.38;4987625;28;20251;-71
2022/11/20 00:43:44;;;;;;;9.00;6.63;;;;;;;2.10;94.14;101292.59;4991643;28;20361;-71
2022/11/20 00:46:16;;;;;;;7.73;6.17;;;;;;;2.11;93.42;101289.28;4987308;28;20196;-71
2022/11/20 00:48:43;;;;;;;10.30;5.80;;;;;;;2.09;93.74;101289.97;4990535;28;20196;-71
2022/11/20 00:51:10;;;;;;;11.37;6.20;;;;;;;2.05;93.51;101286.41;4987058;28;20277;-71
2022/11/20 00:53:36;;;;;;;8.60;6.53;;;;;;;2.08;94.24;101285.72;4988417;28;20206;-71
2022/11/20 00:56:04;;;;;;;8.70;6.27;;;;;;;2.08;93.55;101286.59;4986087;28;20191;-71
2022/11/20 00:58:35;;;;;;;7.03;5.80;;;;;;;2.06;93.10;101289.81;4986605;28;20199;-71
2022/11/20 01:01:02;;;;;;;8.53;5.80;;;;;;;2.07;94.20;101282.31;4987540;28;20223;-72
2022/11/20 01:03:31;;;;;;;10.27;6.33;;;;;;;2.04;93.62;101284.66;4987041;28;20255;-72
2022/11/20 01:06:25;;;;;;;9.63;5.67;;;;;;;2.06;93.56;101282.25;4987848;28;20193;-72
2022/11/20 01:08:53;;;;;;;9.80;5.63;;;;;;;2.04;93.19;101276.22;4986148;28;20209;-71
2022/11/20 01:11:22;;;;;;;9.77;5.97;;;;;;;2.02;94.07;101273.59;4990722;28;20258;-71
2022/11/20 01:13:49;;;;;;;9.57;6.43;;;;;;;2.01;94.04;101279.44;4983984;28;20247;-71
2022/11/20 01:16:18;;;;;;;8.50;5.90;;;;;;;2.00;93.73;101272.63;4990213;28;20288;-72
2022/11/20 01:18:46;;;;;;;7.83;5.30;;;;;;;1.94;92.94;101269.75;4987187;28;20595;-72
2022/11/20 01:21:17;;;;;;;9.57;5.83;;;;;;;1.93;93.93;101272.19;4989478;28;20222;-72
2022/11/20 01:23:43;;;;;;;10.33;6.43;;;;;;;1.90;93.71;101274.50;4986371;28;20199;-71
2022/11/20 01:26:13;;;;;;;7.07;5.70;;;;;;;1.93;93.70;101272.19;4988959;28;20184;-71
2022/11/20 01:28:40;;;;;;;7.33;5.73;;;;;;;1.94;93.65;101273.91;4985742;28;20200;-71
2022/11/20 01:31:21;;;;;;;9.83;5.43;;;;;;;1.90;93.68;101262.78;4988435;28;20219;-71
2022/11/20 01:33:48;;;;;;;8.33;5.70;;;;;;;1.89;93.93;101263.53;4989059;28;20818;-71
2022/11/20 01:36:15;;;;;;;8.07;5.80;;;;;;;1.92;93.99;101263.72;4988188;28;20190;-71
2022/11/20 01:38:41;;;;;;;7.83;5.53;;;;;;;1.97;92.95;101257.28;4990892;28;20262;-71
2022/11/20 01:41:07;;;;;;;7.37;5.30;;;;;;;1.97;93.49;101261.50;4989575;28;20275;-71
2022/11/20 01:43:34;;;;;;;9.43;5.73;;;;;;;1.99;93.08;101250.72;4990956;28;20191;-71
2022/11/20 01:46:02;;;;;;;8.30;5.70;;;;;;;2.00;93.32;101252.44;4989118;28;20195;-71
2022/11/20 01:48:54;;;;;;;9.63;5.80;;;;;;;2.00;93.67;101244.88;5006549;28;20224;-72
2022/11/20 01:51:26;;;;;;;6.80;5.30;;;;;;;2.00;93.14;101249.91;4997107;28;20709;-72
2022/11/20 01:53:55;;;;;;;7.07;5.53;;;;;;;2.00;93.35;101246.50;4998726;28;20203;-71
2022/11/20 01:56:22;;;;;;;7.17;5.67;;;;;;;2.00;93.17;101242.34;4991324;28;20187;-71
2022/11/20 01:58:53;;;;;;;8.63;5.63;;;;;;;2.02;92.57;101247.50;4997633;28;20196;-72
2022/11/20 02:01:20;;;;;;;7.90;5.30;;;;;;;2.01;93.50;101244.06;4990406;28;20763;-71
2022/11/20 02:03:47;;;;;;;7.70;5.50;;;;;;;2.02;93.44;101227.28;4991223;28;20180;-71
2022/11/20 02:06:34;;;;;;;6.67;5.03;;;;;;;2.02;93.69;101227.28;4991105;28;20191;-71
2022/11/20 02:08:59;;;;;;;7.47;6.23;;;;;;;2.00;93.34;101226.31;4990878;28;20215;-71
2022/11/20 02:11:25;;;;;;;6.90;5.17;;;;;;;1.99;93.07;101225.47;4991227;28;20258;-71
2022/11/20 02:13:50;;;;;;;8.33;5.70;;;;;;;2.00;93.31;101219.63;4973758;28;20779;-71
2022/11/20 02:16:26;;;;;;;6.93;5.33;;;;;;;1.97;94.07;101216.91;4991077;28;20230;-71
2022/11/20 02:18:53;;;;;;;7.80;5.50;;;;;;;2.00;93.10;101217.09;4991592;28;20601;-72
2022/11/20 02:21:19;;;;;;;7.97;5.93;;;;;;;2.02;93.75;101222.25;4989473;28;20215;-71
2022/11/20 02:23:57;;;;;;;8.13;6.20;;;;;;;2.03;92.71;101229.03;4991060;28;20200;-72
2022/11/20 02:26:26;;;;;;;7.50;5.57;;;;;;;2.01;93.22;101223.88;4987598;28;20211;-71
2022/11/20 02:28:51;;;;;;;7.17;5.40;;;;;;;2.05;93.22;101222.41;4990064;28;20225;-71
2022/11/20 02:31:17;;;;;;;5.70;5.10;;;;;;;2.05;92.95;101220.75;4989169;28;20298;-71
2022/11/20 02:33:42;;;;;;;7.00;5.70;;;;;;;2.06;92.85;101217.44;4988451;28;20200;-71
2022/11/20 02:36:14;;;;;;;8.23;6.20;;;;;;;2.08;93.10;101213.38;4988820;28;20255;-71
2022/11/20 02:38:39;;;;;;;6.03;5.37;;;;;;;2.09;92.61;101212.59;4987229;28;20191;-72
2022/11/20 02:41:05;;;;;;;8.50;5.53;;;;;;;2.09;93.25;101212.59;4987035;28;20578;-72
2022/11/20 02:43:30;;;;;;;9.17;5.57;;;;;;;2.10;92.77;101201.69;4987139;28;20245;-72
2022/11/20 02:45:56;;;;;;;9.43;5.87;;;;;;;2.10;93.23;101205.88;4990355;28;20195;-72
2022/11/20 02:48:21;;;;;;;7.10;5.80;;;;;;;2.11;93.35;101195.00;4987917;28;20270;-71
2022/11/20 02:50:47;;;;;;;7.50;6.00;;;;;;;2.11;93.37;101195.00;4990823;28;20216;-72
2022/11/20 02:53:12;;;;;;;8.17;5.60;;;;;;;2.10;93.30;101198.28;4985213;28;20191;-72
2022/11/20 02:55:38;;;;;;;7.23;5.50;;;;;;;2.10;93.35;101199.16;4989995;28;20223;-72
2022/11/20 02:58:03;;;;;;;7.07;5.83;;;;;;;2.09;93.06;101196.56;4988775;28;20892;-72
2022/11/20 03:00:28;;;;;;;8.53;6.30;;;;;;;2.09;93.92;101192.38;4989045;28;20302;-72
2022/11/20 03:02:54;;;;;;;8.70;5.40;;;;;;;2.08;93.40;101189.75;4987186;28;20229;-72
2022/11/20 03:05:19;;;;;;;8.80;6.10;;;;;;;2.10;93.95;101198.28;4989650;28;20184;-72
2022/11/20 03:07:45;;;;;;;7.63;6.10;;;;;;;2.07;93.67;101191.41;4983348;28;20650;-72
2022/11/20 03:10:10;;;;;;;7.40;5.83;;;;;;;2.05;92.85;101189.56;4989117;28;20184;-71
2022/11/20 03:12:36;;;;;;;7.90;6.20;;;;;;;2.04;93.20;101187.84;4986179;28;20188;-72
2022/11/20 03:15:01;;;;;;;7.33;5.60;;;;;;;2.00;92.90;101193.50;4989963;28;20211;-72
2022/11/20 03:17:27;;;;;;;9.47;6.87;;;;;;;2.00;93.59;101196.00;4985685;28;20198;-72
2022/11/20 03:19:52;;;;;;;7.93;5.93;;;;;;;1.99;93.37;101196.81;4990588;28;20652;-72
2022/11/20 03:22:17;;;;;;;7.93;5.63;;;;;;;1.98;93.27;101198.44;4986755;28;20254;-71
2022/11/20 03:24:43;;;;;;;8.37;5.90;;;;;;;1.97;93.38;101196.72;4988001;28;20239;-71
2022/11/20 03:27:08;;;;;;;8.90;6.77;;;;;;;1.98;93.54;101193.41;4984014;28;20258;-71
2022/11/20 03:29:35;;;;;;;7.73;6.17;;;;;;;2.00;93.67;101186.81;4986020;28;20192;-71
2022/11/20 03:32:00;;;;;;;8.93;6.30;;;;;;;2.00;94.07;101188.44;4989504;28;20223;-71
2022/11/20 03:34:26;;;;;;;9.43;6.50;;;;;;;2.02;94.22;101187.75;4984931;28;20561;-71
2022/11/20 03:36:51;;;;;;;8.83;6.60;;;;;;;2.03;94.32;101191.16;4982835;28;20193;-71
2022/11/20 03:39:16;;;;;;;8.87;6.33;;;;;;;2.01;93.88;101183.50;4988361;28;20185;-72
2022/11/20 03:41:43;;;;;;;10.53;6.03;;;;;;;2.03;94.16;101188.63;4989406;28;20219;-72
2022/11/20 03:44:10;;;;;;;8.30;6.07;;;;;;;2.03;93.91;101181.94;4989137;28;20184;-72
2022/11/20 03:46:36;;;;;;;9.07;6.30;;;;;;;2.01;94.13;101178.44;4983278;28;20428;-71
2022/11/20 03:49:02;;;;;;;8.50;6.20;;;;;;;2.02;94.15;101179.31;4986338;28;20192;-71
2022/11/20 03:51:33;;;;;;;7.83;6.10;;;;;;;2.04;95.04;101177.75;4988465;28;20203;-71
2022/11/20 03:54:01;;;;;;;7.63;6.40;;;;;;;2.02;94.60;101174.28;4989673;28;20198;-71
2022/11/20 03:56:30;;;;;;;9.20;5.90;;;;;;;2.02;94.50;101170.06;4989500;28;20558;-71
2022/11/20 03:58:55;;;;;;;7.83;6.33;;;;;;;2.06;94.93;101168.63;4987347;28;20199;-71
2022/11/20 04:01:23;;;;;;;9.07;5.97;;;;;;;2.06;94.75;101164.41;4984627;28;20207;-71
2022/11/20 04:03:51;;;;;;;8.40;6.20;;;;;;;2.07;94.50;101168.69;4987332;28;20199;-72
2022/11/20 04:06:20;;;;;;;6.43;5.70;;;;;;;2.05;94.23;101169.38;4988096;28;20199;-72
2022/11/20 04:08:45;;;;;;;8.23;6.50;;;;;;;2.03;94.54;101160.84;4966495;28;20192;-72
2022/11/20 04:11:16;;;;;;;7.47;6.10;;;;;;;2.02;94.03;101165.03;4986895;28;20212;-71
2022/11/20 04:13:47;;;;;;;9.13;6.60;;;;;;;2.04;94.92;101163.47;4982939;28;20192;-71
2022/11/20 04:16:12;;;;;;;7.40;6.03;;;;;;;2.03;94.46;101160.84;4988737;28;20233;-71
2022/11/20 04:18:38;;;;;;;11.27;6.87;;;;;;;2.02;94.59;101166.69;4983378;28;20262;-71
2022/11/20 04:21:05;;;;;;;8.90;6.83;;;;;;;2.03;94.39;101151.66;4985589;28;20218;-71
2022/11/20 04:23:30;;;;;;;7.80;5.73;;;;;;;2.00;94.83;101151.44;4982704;28;20191;-71
2022/11/20 04:26:04;;;;;;;9.83;5.90;;;;;;;1.99;94.51;101148.84;4985773;28;20242;-71
2022/11/20 04:28:29;;;;;;;9.60;6.50;;;;;;;1.98;94.32;101158.06;4986476;28;20685;-71
2022/11/20 04:31:05;;;;;;;8.03;6.53;;;;;;;1.99;94.59;101152.25;4989133;28;20208;-71
2022/11/20 04:33:30;;;;;;;11.77;6.80;;;;;;;2.00;95.30;101153.09;4987808;28;20195;-71
2022/11/20 04:36:00;;;;;;;9.47;6.57;;;;;;;1.99;94.69;101152.25;4982864;28;20223;-71
2022/11/20 04:38:26;;;;;;;9.50;6.37;;;;;;;2.00;95.12;101150.56;4983875;28;20678;-71
2022/11/20 04:40:56;;;;;;;7.07;6.23;;;;;;;1.99;94.73;101151.38;4988872;28;20298;-71
2022/11/20 04:43:21;;;;;;;8.80;6.27;;;;;;;1.96;95.03;101149.53;4989300;28;20199;-70
2022/11/20 04:45:57;;;;;;;7.63;6.17;;;;;;;1.98;96.01;101147.09;4987449;28;20184;-71
2022/11/20 04:48:23;;;;;;;10.53;6.43;;;;;;;1.98;95.71;101153.00;4987781;28;20188;-71
2022/11/20 04:50:49;;;;;;;7.67;6.10;;;;;;;1.97;95.24;101150.41;4987681;28;20590;-71
2022/11/20 04:53:14;;;;;;;8.77;6.23;;;;;;;1.98;95.01;101147.94;4989453;28;20195;-71
2022/11/20 04:55:40;;;;;;;7.57;6.40;;;;;;;1.99;95.38;101147.19;4987945;28;20196;-71
2022/11/20 04:58:06;;;;;;;7.10;6.20;;;;;;;1.99;95.48;101146.31;4988207;28;20196;-72
2022/11/20 05:00:31;;;;;;;6.97;6.27;;;;;;;1.98;94.92;101153.00;4989081;28;20207;-71
2022/11/20 05:02:57;;;;;;;7.63;5.80;;;;;;;2.00;95.63;101150.56;4991388;28;20556;-72
2022/11/20 05:05:22;;;;;;;7.67;6.40;;;;;;;2.00;95.28;101143.00;4992540;28;20191;-72
2022/11/20 05:07:47;;;;;;;8.23;6.47;;;;;;;2.00;95.43;101141.34;4991858;28;20193;-71
2022/11/20 05:10:13;;;;;;;8.67;7.00;;;;;;;2.01;95.94;101143.09;4992109;28;20683;-72
2022/11/20 05:12:39;;;;;;;8.87;6.60;;;;;;;2.01;95.21;101135.53;4988461;28;20261;-71
2022/11/20 05:15:04;;;;;;;8.17;6.27;;;;;;;2.01;95.29;101139.69;4992296;28;20254;-71
2022/11/20 05:17:30;;;;;;;9.07;6.37;;;;;;;2.02;95.70;101134.72;4988713;28;20191;-72
2022/11/20 05:19:55;;;;;;;7.07;5.70;;;;;;;2.02;95.35;101136.41;4992036;28;22044;-72
2022/11/20 05:22:21;;;;;;;8.20;6.13;;;;;;;2.01;95.32;101130.47;4990250;28;20235;-72
2022/11/20 05:24:47;;;;;;;8.03;6.17;;;;;;;2.01;95.72;101127.94;4990495;28;20199;-71
2022/11/20 05:27:12;;;;;;;7.43;5.73;;;;;;;2.01;95.66;101129.59;4992565;28;20198;-71
2022/11/20 05:29:37;;;;;;;7.10;6.40;;;;;;;1.99;96.11;101137.09;4992071;28;20194;-71
2022/11/20 05:32:05;;;;;;;7.80;6.03;;;;;;;2.01;95.31;101132.09;4991414;28;20207;-71
2022/11/20 05:34:31;;;;;;;8.17;6.73;;;;;;;2.01;96.16;101134.63;4989753;28;20962;-71
2022/11/20 05:36:56;;;;;;;7.50;6.20;;;;;;;2.00;95.84;101128.72;4989918;28;20200;-72
2022/11/20 05:39:21;;;;;;;8.80;6.20;;;;;;;1.98;95.95;101125.22;4992337;28;20545;-72
2022/11/20 05:42:29;;;;;;;7.40;5.83;;;;;;;1.99;96.38;101124.47;4991972;28;20692;-72
2022/11/20 05:44:32;;;;;;;8.53;6.60;;;;;;;1.95;95.31;101125.06;4990995;28;20202;-72
2022/11/20 05:46:58;;;;;;;10.07;6.43;;;;;;;1.96;95.59;101118.34;4991225;28;20196;-72
2022/11/20 05:49:23;;;;;;;7.30;5.73;;;;;;;1.95;96.26;101117.50;4991765;28;20322;-71
2022/11/20 05:51:48;;;;;;;8.40;6.07;;;;;;;1.94;96.14;101113.25;4991430;28;20716;-72
2022/11/20 05:54:14;;;;;;;11.77;6.37;;;;;;;1.95;96.04;101101.47;4992082;28;20214;-71
2022/11/20 05:56:39;;;;;;;8.20;6.23;;;;;;;1.93;95.55;101100.53;4991812;28;20184;-71
2022/11/20 05:59:05;;;;;;;9.30;6.67;;;;;;;1.92;96.22;101106.38;4991023;28;20645;-71
2022/11/20 06:01:30;;;;;;;8.37;6.50;;;;;;;1.90;96.22;101103.75;4991778;28;20231;-71
2022/11/20 06:03:55;;;;;;;9.73;6.77;;;;;;;1.86;95.43;101100.94;4991491;28;20210;-71
2022/11/20 06:06:21;;;;;;;10.20;6.70;;;;;;;1.84;96.18;101105.91;4991503;28;20184;-71
2022/11/20 06:08:47;;;;;;;9.90;7.20;;;;;;;1.84;96.13;101103.38;4990826;28;20367;-71
2022/11/20 06:11:14;;;;;;;9.97;7.10;;;;;;;1.84;95.52;101100.84;4991155;28;20215;-71
2022/11/20 06:13:40;;;;;;;10.03;6.67;;;;;;;1.83;96.69;101109.22;4989493;28;20271;-71
2022/11/20 06:16:06;;;;;;;10.87;7.30;;;;;;;1.82;96.41;101102.44;4991898;28;20306;-71
2022/11/20 06:18:31;;;;;;;7.80;7.00;;;;;;;1.77;95.58;101102.94;4990722;28;20195;-71
2022/11/20 06:21:06;;;;;;;8.70;6.83;;;;;;;1.79;95.97;101111.47;4990424;28;20319;-71
2022/11/20 06:23:33;;;;;;;9.10;6.80;;;;;;;1.81;96.34;101109.91;4990303;28;20190;-71
2022/11/20 06:26:07;;;;;;;8.93;7.27;;;;;;;1.82;96.64;101109.13;4991023;28;20192;-71
2022/11/20 06:28:32;;;;;;;9.37;7.00;;;;;;;1.77;96.01;101103.81;4989945;28;20654;-71
2022/11/20 06:30:58;;;;;;;8.53;6.77;;;;;;;1.68;96.12;101094.84;4990927;28;20294;-72
2022/11/20 06:33:24;;;;;;;9.37;7.10;;;;;;;1.67;95.59;101108.25;4990160;28;20192;-71
2022/11/20 06:35:50;;;;;;;9.13;7.20;;;;;;;1.66;96.32;101098.94;5006408;28;20640;-71
2022/11/20 06:38:15;;;;;;;9.53;7.10;;;;;;;1.65;95.65;101094.69;4991320;28;20546;-72
2022/11/20 06:40:41;;;;;;;8.67;6.90;;;;;;;1.61;96.16;101098.66;4989123;28;20215;-72
2022/11/20 06:43:08;;;;;;;12.10;7.77;;;;;;;1.58;95.57;101095.97;4990650;28;20348;-71
2022/11/20 06:45:34;;;;;;;9.77;7.20;;;;;;;1.56;96.68;101092.47;5002275;28;20228;-71
2022/11/20 06:47:59;;;;;;;11.07;7.70;;;;;;;1.54;96.15;101085.59;4989638;28;20220;-71
2022/11/20 06:50:25;;;;;;;12.23;8.30;;;;;;;1.52;96.74;101087.16;4985886;28;20204;-71
2022/11/20 06:52:50;;;;;;;11.13;7.67;;;;;;;1.46;96.40;101085.16;4988004;28;20184;-72
2022/11/20 06:55:15;;;;;;;10.60;7.70;;;;;;;1.47;96.07;101081.00;4988259;28;20572;-71
2022/11/20 06:57:41;;;;;;;10.83;8.30;;;;;;;1.47;96.44;101083.50;4989131;28;20230;-71
2022/11/20 07:00:07;;;;;;;9.73;8.13;;;;;;;1.49;96.41;101085.34;4988399;28;20258;-70
2022/11/20 07:02:32;;;;;;;8.93;7.57;;;;;;;1.51;96.38;101082.91;4988777;28;20660;-72
2022/11/20 07:04:58;;;;;;;9.33;7.77;;;;;;;1.51;95.87;101083.75;4990826;28;20267;-70
2022/11/20 07:07:23;;;;;;;8.57;7.20;;;;;;;1.53;96.73;101083.84;4988157;28;20251;-71
2022/11/20 07:09:49;;;;;;;11.43;7.40;;;;;;;1.56;96.17;101091.63;4985832;28;20195;-73
2022/11/20 07:12:14;;;;;;;9.30;7.17;;;;;;;1.59;96.69;101085.09;4985891;28;20218;-69
2022/11/20 07:14:39;;;;;;;10.03;7.13;;;;;;;1.59;96.09;101082.56;4987868;28;20216;-70
2022/11/20 07:17:05;;;;;;;10.37;7.67;;;;;;;1.63;95.94;101093.69;4984394;28;20238;-69
2022/11/20 07:19:30;;;;;;;8.67;6.97;;;;;;;1.65;96.38;101090.47;4987173;28;20208;-69
2022/11/20 07:21:56;;;;;;;10.20;7.20;;;;;;;1.64;96.42;101090.38;4984802;28;20212;-70
2022/11/20 07:24:21;;;;;;;10.17;7.27;;;;;;;1.66;95.80;101089.69;4990401;28;20646;-70
2022/11/20 07:26:48;;;;;;;10.00;6.87;;;;;;;1.67;95.58;101090.56;4984380;28;20666;-70
2022/11/20 07:29:15;;;;;;;11.60;7.37;;;;;;;1.69;95.76;101091.56;4991372;28;20184;-72
2022/11/20 07:31:40;;;;;;;10.03;6.83;;;;;;;1.70;95.58;101099.19;4968070;28;20243;-72
2022/11/20 07:34:05;;;;;;;9.03;7.00;;;;;;;1.73;96.09;101098.50;4970837;28;20203;-70
2022/11/20 07:36:31;;;;;;;11.37;7.80;;;;;;;1.74;95.50;101100.25;4964326;28;20239;-69
2022/11/20 07:38:56;;;;;;;9.73;6.80;;;;;;;1.74;96.42;101095.22;4974145;28;20288;-71
2022/11/20 07:41:22;;;;;;;10.33;7.23;;;;;;;1.75;95.70;101091.91;4970508;28;20236;-70
2022/11/20 07:43:47;;;;;;;9.13;7.20;;;;;;;1.76;95.89;101094.50;4966407;28;20196;-69
2022/11/20 07:46:12;;;;;;;9.77;7.53;;;;;;;1.78;96.43;101089.53;4970377;28;20185;-72
2022/11/20 07:48:38;;;;;;;10.27;7.40;;;;;;;1.81;96.31;101098.16;4969727;28;20200;-70
2022/11/20 07:51:03;;;;;;;8.40;6.73;;;;;;;1.84;95.83;101094.94;4973170;28;20224;-71
2022/11/20 07:53:29;;;;;;;10.13;7.10;;;;;;;1.90;95.63;101092.78;4970908;28;20267;-71
2022/11/20 07:55:54;;;;;;;9.93;7.50;;;;;;;1.89;95.71;101101.13;4970179;28;20224;-70
2022/11/20 07:58:21;;;;;;;8.57;6.90;;;;;;;1.93;96.01;101098.84;4970603;28;20200;-70
2022/11/20 08:00:46;;;;;;;9.87;7.77;;;;;;;1.96;95.79;101096.53;4970433;28;20211;-71
2022/11/20 08:03:12;;;;;;;9.37;6.67;;;;;;;1.96;95.52;101088.94;4967719;28;20550;-70
2022/11/20 08:05:38;;;;;;;8.83;7.00;;;;;;;2.02;95.83;101089.28;4970146;28;20192;-70
2022/11/20 08:08:03;;;;;;;11.30;7.37;;;;;;;2.02;95.14;101078.34;4965424;28;20216;-71
2022/11/20 08:10:29;;;;;;;10.50;7.70;;;;;;;2.07;94.96;101087.88;4975152;28;20230;-72
2022/11/20 08:15:40;;;;;;;8.90;6.60;;;;;;;2.14;95.02;101081.53;4963679;28;20761;-70
2022/11/20 08:18:07;;;;;;;9.90;6.90;;;;;;;2.21;94.15;101087.00;4971250;28;20176;-71
2022/11/20 08:20:34;;;;;;;7.90;6.83;;;;;;;2.25;94.63;101081.34;4971015;28;20802;-69
2022/11/20 08:23:01;;;;;;;10.53;6.70;;;;;;;2.29;94.21;101083.25;4971013;28;20548;-69
2022/11/20 08:25:29;;;;;;;8.63;6.63;;;;;;;2.27;95.00;101081.44;4971055;28;20239;-69
2022/11/20 08:27:57;;;;;;;10.70;6.60;;;;;;;2.33;94.60;101081.75;4969962;28;20550;-70
2022/11/20 08:30:22;;;;;;;10.37;6.97;;;;;;;2.35;93.98;101080.22;4969919;28;20208;-70
2022/11/20 08:32:48;;;;;;;10.63;7.10;;;;;;;2.36;93.78;101080.31;4970499;28;20844;-71
2022/11/20 08:35:13;;;;;;;9.13;6.57;;;;;;;2.38;93.77;101086.28;4969376;28;20974;-70
2022/11/20 08:37:41;;;;;;;9.70;5.97;;;;;;;2.41;94.24;101083.94;4969745;28;20246;-71
2022/11/20 08:40:11;;;;;;;10.13;6.63;;;;;;;2.44;93.92;101090.81;4974462;28;20200;-70
2022/11/20 08:42:36;;;;;;;8.57;6.47;;;;;;;2.49;94.23;101089.41;4973486;28;20685;-72
2022/11/20 08:45:02;;;;;;;8.53;6.67;;;;;;;2.51;94.12;101085.31;4974403;28;20220;-69
2022/11/20 08:47:28;;;;;;;9.17;7.60;;;;;;;2.53;94.02;101082.06;4974745;28;20185;-69
2022/11/20 08:49:53;;;;;;;10.03;7.20;;;;;;;2.59;93.52;101090.00;4984533;28;20211;-69
2022/11/20 08:52:19;;;;;;;10.83;8.43;;;;;;;2.63;93.92;101078.41;4973283;28;20258;-73
2022/11/20 08:54:44;;;;;;;10.63;7.77;;;;;;;2.66;93.17;101081.09;4972672;28;20212;-69
2022/11/20 08:57:10;;;;;;;10.23;8.23;;;;;;;2.71;93.66;101078.03;4974173;28;20271;-70
2022/11/20 08:59:35;;;;;;;10.53;8.30;;;;;;;2.69;92.76;101082.13;4971278;28;20207;-71
2022/11/20 09:02:00;;;;;;;11.80;8.80;;;;;;;2.78;93.57;101086.81;4974206;28;20228;-71
2022/11/20 09:04:26;;;;;;;13.83;8.87;;;;;;;2.83;92.39;101092.97;4972279;28;20712;-70
2022/11/20 09:06:51;;;;;;;11.93;9.30;;;;;;;2.92;92.60;101079.19;5003228;28;20192;-71
2022/11/20 09:09:18;;;;;;;10.97;8.73;;;;;;;2.97;91.65;101081.94;4970874;28;20646;-71
2022/11/20 09:11:43;;;;;;;12.53;9.07;;;;;;;3.04;91.19;101081.47;4973341;28;20200;-71
2022/11/20 09:14:09;;;;;;;12.67;9.37;;;;;;;3.29;91.32;101089.53;4971994;28;20570;-71
2022/11/20 09:16:34;;;;;;;12.30;9.37;;;;;;;3.63;90.26;101083.75;4974272;28;20181;-70
2022/11/20 09:19:00;;;;;;;13.50;10.07;;;;;;;3.70;89.04;101082.41;4974093;28;20570;-71
2022/11/20 09:21:25;;;;;;;16.57;10.73;;;;;;;3.83;88.81;101074.63;4971998;28;20220;-70
2022/11/20 09:23:51;;;;;;;21.10;13.70;;;;;;;4.23;87.23;101076.63;4972492;28;20275;-71
2022/11/20 09:26:16;;;;;;;23.00;13.03;;;;;;;3.98;86.69;101077.91;4974040;28;20184;-71
2022/11/20 09:28:41;;;;;;;16.33;11.53;;;;;;;3.80;87.31;101079.53;5005159;28;20235;-70
2022/11/20 09:31:09;;;;;;;15.67;10.90;;;;;;;3.58;88.15;101079.28;4973565;28;20208;-69
2022/11/20 09:33:35;;;;;;;13.40;10.57;;;;;;;3.41;88.86;101069.94;4973787;28;20204;-70
2022/11/20 09:36:01;;;;;;;11.73;9.33;;;;;;;3.34;89.54;101078.00;4972454;28;20299;-71
2022/11/20 09:38:26;;;;;;;10.47;7.93;;;;;;;3.22;89.72;101083.28;4973860;28;20189;-69
2022/11/20 09:41:41;;;;;;;9.70;7.50;;;;;;;3.15;89.20;101082.91;4973517;28;20203;-71
2022/11/20 09:44:18;;;;;;;9.23;7.10;;;;;;;3.09;89.27;101078.38;4968089;28;20561;-72
2022/11/20 09:46:53;;;;;;;9.73;8.27;;;;;;;3.18;90.20;101076.34;4973495;28;20958;-70
2022/11/20 09:49:28;;;;;;;11.13;9.30;;;;;;;3.31;90.51;101077.88;4966814;28;20184;-70
2022/11/20 09:51:59;;;;;;;8.63;7.70;;;;;;;3.44;89.58;101075.16;4971167;28;20224;-69
2022/11/20 09:54:38;;;;;;;9.13;7.50;;;;;;;3.48;89.67;101077.03;4969723;28;20232;-70
2022/11/20 09:57:11;;;;;;;9.23;8.30;;;;;;;3.54;89.62;101077.38;4972173;28;20196;-71
2022/11/20 09:59:40;;;;;;;8.60;7.60;;;;;;;3.56;89.51;101079.19;4972537;28;20207;-70
2022/11/20 10:02:17;;;;;;;10.27;8.23;;;;;;;3.65;89.26;101073.72;4973270;28;20727;-70
2022/11/20 10:04:47;;;;;;;9.27;7.20;;;;;;;3.78;88.58;101071.00;4973510;28;20184;-70
2022/11/20 10:07:12;;;;;;;8.67;7.13;;;;;;;3.87;89.01;101079.06;4973591;28;20592;-70
2022/11/20 10:09:43;;;;;;;9.87;7.27;;;;;;;3.81;87.65;101069.47;4971804;28;20247;-69
2022/11/20 10:12:20;;;;;;;7.67;6.80;;;;;;;3.91;88.37;101065.75;4972546;28;20239;-69
2022/11/20 10:15:13;;;;;;;7.93;6.73;;;;;;;3.93;88.05;101065.03;4973035;28;20287;-70
2022/11/20 10:18:07;;;;;;;8.73;7.13;;;;;;;4.15;88.25;101057.66;4972793;28;20347;-71
2022/11/20 10:20:47;;;;;;;8.00;7.17;;;;;;;4.15;88.46;101066.94;4968182;28;20294;-72
2022/11/20 10:23:24;;;;;;;9.50;7.13;;;;;;;4.02;88.75;101068.03;5000459;28;20600;-71
2022/11/20 10:26:17;;;;;;;8.23;7.10;;;;;;;3.93;88.83;101066.69;4968516;28;20760;-69
2022/11/20 10:29:15;;;;;;;7.10;6.40;;;;;;;3.87;89.50;101061.31;4962722;28;20188;-69
2022/11/20 10:31:49;;;;;;;6.17;5.57;;;;;;;3.79;88.60;101063.50;4971204;28;20256;-72
2022/11/20 10:34:23;;;;;;;7.27;6.27;;;;;;;3.62;89.44;101063.41;4962508;28;20219;-71
2022/11/20 10:37:08;;;;;;;8.67;6.80;;;;;;;3.48;90.84;101061.84;4969025;28;20191;-70
2022/11/20 10:39:45;;;;;;;7.83;6.47;;;;;;;3.43;91.50;101056.59;4967767;28;20192;-71
2022/11/20 10:42:17;;;;;;;6.27;5.67;;;;;;;3.82;90.57;101061.09;4971383;28;20208;-71
2022/11/20 10:45:01;;;;;;;5.67;4.80;;;;;;;4.32;89.69;101056.78;4967474;28;20271;-69
2022/11/20 10:47:29;;;;;;;4.70;3.87;;;;;;;4.36;87.59;101051.09;4970850;28;20199;-70
2022/11/20 10:50:01;;;;;;;4.27;3.70;;;;;;;4.70;85.02;101049.28;4968109;28;20188;-71
2022/11/20 10:52:35;;;;;;;4.80;4.10;;;;;;;4.84;85.08;101049.94;4968510;28;20481;-70
2022/11/20 10:55:25;;;;;;;4.23;3.80;;;;;;;5.65;81.96;101043.34;4966406;28;20246;-71
2022/11/20 10:58:00;;;;;;;4.67;4.17;;;;;;;5.16;83.48;101047.16;4966732;28;20196;-70
2022/11/20 11:00:25;;;;;;;4.90;4.30;;;;;;;4.86;84.28;101046.66;4968262;28;20262;-71
2022/11/20 11:02:53;;;;;;;4.00;3.60;;;;;;;4.98;84.72;101043.81;4970250;28;20575;-70
2022/11/20 11:05:24;;;;;;;4.20;3.80;;;;;;;5.09;83.49;101047.69;4971042;28;20522;-70
2022/11/20 11:07:53;;;;;;;4.37;3.97;;;;;;;6.32;80.40;101041.13;4968087;28;20210;-72
2022/11/20 11:10:22;;;;;;;3.57;3.27;;;;;;;9.37;65.14;101020.81;4970090;28;20271;-70
2022/11/20 11:12:48;;;;;;;3.83;2.60;;;;;;;6.86;69.54;101025.41;4970104;28;20204;-71
2022/11/20 11:15:26;;;;;;;3.30;3.00;;;;;;;6.16;72.88;101028.59;4970111;28;20204;-70
2022/11/20 11:17:52;;;;;;;4.00;3.17;;;;;;;5.23;76.80;101031.38;4968409;28;20271;-72
2022/11/20 11:20:23;;;;;;;3.73;3.37;;;;;;;5.35;78.24;101032.78;4970160;28;20296;-70
2022/11/20 11:22:55;;;;;;;3.80;2.80;;;;;;;9.61;69.74;101001.00;4969280;28;20196;-70
2022/11/20 11:25:24;;;;;;;3.33;3.03;;;;;;;7.81;65.30;101010.91;4971512;28;20221;-71
2022/11/20 11:27:50;;;;;;;3.50;3.20;;;;;;;5.82;73.55;101037.34;4969135;28;20234;-71
2022/11/20 11:30:18;;;;;;;3.77;3.40;;;;;;;5.06;78.22;101034.88;4970432;28;20188;-70
2022/11/20 11:32:45;;;;;;;3.40;3.10;;;;;;;4.84;79.66;101039.78;4970095;28;20192;-70
2022/11/20 11:35:23;;;;;;;3.60;3.13;;;;;;;4.65;80.15;101035.53;4969957;28;20208;-70
2022/11/20 11:37:50;;;;;;;3.70;3.23;;;;;;;4.48;81.16;101028.84;4968288;28;20184;-71
2022/11/20 11:40:19;;;;;;;4.17;3.37;;;;;;;4.35;81.07;101034.16;4971243;28;20192;-69